Time;durP1;ratioP1;P1;durP2;ratioP2;P2;SDS_P1;SDS_P2;PMS_P1;PMS_P2;Temp;Humidity;BMP_temperature;BMP_pressure;BME280_temperature;BME280_humidity;BME280_pressure;Samples;Min_cycle;Max_cycle;Signal;HPM_P1;HPM_P2
2022/08/04 00:00:03;;;;;;;;;2.75;2.00;;;;;28.95;39.04;100498.72;4999581;28;47094;-85
2022/08/04 00:02:55;;;;;;;;;1.75;1.75;;;;;28.96;38.74;100511.16;5018216;28;45826;-86
2022/08/04 00:05:54;;;;;;;;;3.00;2.00;;;;;28.96;38.98;100503.91;5012827;28;45707;-86
2022/08/04 00:08:38;;;;;;;;;1.00;1.00;;;;;28.96;39.11;100503.06;5018645;28;45642;-85
2022/08/04 00:11:03;;;;;;;;;1.75;1.75;;;;;28.95;39.11;100504.94;5000439;28;46741;-86
2022/08/04 00:13:38;;;;;;;;;3.75;2.00;;;;;28.91;38.54;100498.38;5000451;28;46870;-85
2022/08/04 00:16:09;;;;;;;;;3.25;2.50;;;;;28.89;38.75;100496.94;4999696;28;46007;-85
2022/08/04 00:18:49;;;;;;;;;1.75;0.00;;;;;28.97;39.25;100491.22;5000256;28;45638;-85
2022/08/04 00:21:17;;;;;;;;;2.75;2.00;;;;;28.97;39.00;100493.94;4999589;28;47459;-86
2022/08/04 00:23:44;;;;;;;;;2.00;2.00;;;;;29.03;38.76;100504.63;4999361;28;47711;-86
2022/08/04 00:26:10;;;;;;;;;3.00;2.50;;;;;28.92;39.04;100489.22;4999305;28;45713;-85
2022/08/04 00:28:41;;;;;;;;;1.00;1.00;;;;;29.06;39.38;100512.22;4999330;28;45936;-85
2022/08/04 00:31:09;;;;;;;;;2.50;2.50;;;;;29.03;39.23;100501.91;5017516;28;46529;-85
2022/08/04 00:33:37;;;;;;;;;2.00;2.00;;;;;28.97;39.40;100492.06;4998718;28;47032;-85
2022/08/04 00:36:03;;;;;;;;;3.00;3.00;;;;;29.00;39.70;100506.94;5016946;28;45666;-87
2022/08/04 00:38:29;;;;;;;;;2.00;2.00;;;;;28.89;39.57;100489.69;4999496;28;46003;-86
2022/08/04 00:41:03;;;;;;;;;3.75;2.75;;;;;28.91;39.55;100501.06;5016847;28;45886;-85
2022/08/04 00:43:33;;;;;;;;;2.00;2.00;;;;;28.76;39.82;100503.38;5017424;28;45633;-86
2022/08/04 00:46:25;;;;;;;;;1.75;1.50;;;;;28.69;39.97;100511.53;5017788;28;45613;-87
2022/08/04 00:49:18;;;;;;;;;3.25;1.25;;;;;28.61;39.88;100511.06;4939462;28;45698;-85
2022/08/04 00:52:09;;;;;;;;;3.00;2.00;;;;;28.50;39.88;100498.34;4938568;28;47558;-85
2022/08/04 00:54:52;;;;;;;;;2.00;2.00;;;;;28.39;40.84;100510.72;4920736;28;46746;-85
2022/08/04 00:57:30;;;;;;;;;2.00;1.00;;;;;28.23;41.73;100508.66;4957459;28;45593;-88
2022/08/04 01:00:09;;;;;;;;;2.75;2.50;;;;;27.97;42.08;100482.81;4942362;28;45703;-85
2022/08/04 01:06:04;;;;;;;;;2.00;2.00;;;;;27.91;42.19;100503.38;4942033;28;45592;-85
2022/08/04 01:08:59;;;;;;;;;2.50;1.25;;;;;27.86;42.55;100502.41;4955830;28;45740;-84
2022/08/04 01:11:54;;;;;;;;;3.00;2.75;;;;;27.71;41.89;100488.50;4921283;28;45761;-86
2022/08/04 01:14:41;;;;;;;;;2.00;2.00;;;;;27.65;42.32;100506.38;4861160;29;45909;-85
2022/08/04 01:17:32;;;;;;;;;3.00;3.00;;;;;27.49;42.52;100488.06;4861102;29;46046;-85
2022/08/04 01:23:57;;;;;;;;;1.75;1.75;;;;;27.42;42.58;100501.59;4860960;29;45904;-85
2022/08/04 01:26:46;;;;;;;;;2.00;2.00;;;;;27.35;43.48;100508.94;4869276;29;47308;-85
2022/08/04 01:29:14;;;;;;;;;3.00;3.00;;;;;27.25;43.06;100488.94;4881025;29;46474;-86
2022/08/04 01:32:01;;;;;;;;;2.25;1.50;;;;;27.33;43.37;100504.78;4881146;29;45672;-88
2022/08/04 01:38:03;;;;;;;;;3.00;2.00;;;;;27.24;43.16;100504.25;4880078;28;45965;-87
2022/08/04 01:40:29;;;;;;;;;3.00;2.00;;;;;27.15;43.91;100489.44;4880634;29;46085;-86
2022/08/04 01:42:57;;;;;;;;;2.00;2.00;;;;;27.19;43.35;100504.09;4863135;29;45836;-85
2022/08/04 01:45:23;;;;;;;;;2.00;1.75;;;;;27.14;43.26;100494.00;4881514;29;45723;-87
2022/08/04 01:47:51;;;;;;;;;2.25;1.75;;;;;27.12;42.98;100500.63;4880858;29;45663;-85
2022/08/04 01:53:41;;;;;;;;;2.25;1.75;;;;;27.01;43.54;100482.50;4955047;28;45640;-84
2022/08/04 01:56:09;;;;;;;;;3.25;2.00;;;;;26.99;43.50;100484.63;4955628;28;45652;-86
2022/08/04 01:58:37;;;;;;;;;2.25;2.00;;;;;26.85;43.83;100475.78;4939136;28;48677;-83
2022/08/04 02:01:08;;;;;;;;;2.50;2.50;;;;;26.91;44.36;100491.06;4985380;28;48346;-85
2022/08/04 02:03:36;;;;;;;;;3.00;2.00;;;;;26.74;44.07;100469.25;5017418;28;45726;-84
2022/08/04 02:06:16;;;;;;;;;4.50;3.75;;;;;26.83;44.37;100490.50;5017788;28;45722;-85
2022/08/04 02:08:57;;;;;;;;;1.50;1.50;;;;;26.71;44.31;100469.69;5022153;28;45521;-86
2022/08/04 02:11:23;;;;;;;;;3.50;2.00;;;;;26.65;44.55;100469.72;5002870;28;47267;-88
2022/08/04 02:14:01;;;;;;;;;3.75;2.00;;;;;26.63;44.79;100486.06;5001119;28;45755;-87
2022/08/04 02:16:48;;;;;;;;;2.75;2.75;;;;;26.52;44.63;100473.31;5000336;28;45664;-88
2022/08/04 02:19:31;;;;;;;;;4.00;3.75;;;;;26.52;44.70;100485.94;5016139;28;46505;-88
2022/08/04 02:22:05;;;;;;;;;3.00;2.00;;;;;26.45;45.30;100472.53;5014677;28;48205;-87
2022/08/04 02:24:31;;;;;;;;;2.00;2.00;;;;;26.37;45.21;100463.91;4998319;28;46556;-88
2022/08/04 02:26:57;;;;;;;;;3.75;2.25;;;;;26.31;44.93;100449.47;5016046;28;45770;-87
2022/08/04 02:29:49;;;;;;;;;2.00;1.75;;;;;26.38;45.67;100466.38;5015790;28;45593;-86
2022/08/04 02:32:24;;;;;;;;;5.00;3.00;;;;;26.33;45.60;100468.88;5015452;28;45709;-86
2022/08/04 02:35:02;;;;;;;;;3.00;3.00;;;;;26.30;45.35;100455.88;5015312;28;45731;-86
2022/08/04 02:37:30;;;;;;;;;2.00;2.00;;;;;26.22;45.63;100435.47;4997328;28;45709;-87
2022/08/04 02:39:58;;;;;;;;;4.25;3.00;;;;;26.28;45.90;100463.34;5015276;28;46683;-85
2022/08/04 02:42:26;;;;;;;;;3.00;3.00;;;;;26.22;46.13;100461.47;4997358;28;48107;-87
2022/08/04 02:44:57;;;;;;;;;3.00;2.00;;;;;26.26;45.85;100468.91;4997878;28;45646;-87
2022/08/04 02:47:25;;;;;;;;;4.00;3.25;;;;;26.26;45.95;100466.22;5017038;28;45539;-87
2022/08/04 02:49:51;;;;;;;;;3.25;2.75;;;;;26.22;45.53;100480.28;4999048;28;46680;-87
2022/08/04 02:52:18;;;;;;;;;2.50;2.50;;;;;26.11;46.30;100471.03;5016160;28;46510;-86
2022/08/04 02:54:46;;;;;;;;;3.00;2.00;;;;;26.09;46.66;100475.78;5025607;28;45593;-87
2022/08/04 02:57:14;;;;;;;;;3.00;2.00;;;;;26.07;46.78;100482.41;5035010;28;45719;-86
2022/08/04 03:00:14;;;;;;;;;3.25;2.25;;;;;26.03;46.78;100475.81;5033750;28;45516;-87
2022/08/04 03:02:47;;;;;;;;;2.00;2.00;;;;;25.90;47.13;100465.97;5023455;28;46096;-86
2022/08/04 03:05:18;;;;;;;;;3.50;2.00;;;;;25.95;47.00;100484.13;4997812;28;45590;-86
2022/08/04 03:08:15;;;;;;;;;4.00;3.75;;;;;25.86;46.96;100480.81;4997414;28;45635;-87
2022/08/04 03:10:56;;;;;;;;;3.00;3.00;;;;;25.85;47.52;100485.41;4998213;28;47725;-86
2022/08/04 03:13:27;;;;;;;;;3.00;3.00;;;;;25.83;47.39;100481.25;5020264;28;46584;-84
2022/08/04 03:16:24;;;;;;;;;3.00;3.00;;;;;25.79;47.79;100480.03;5018952;28;45543;-85
2022/08/04 03:19:01;;;;;;;;;3.00;3.00;;;;;25.76;47.67;100485.81;5015715;28;45706;-85
2022/08/04 03:21:39;;;;;;;;;4.50;3.75;;;;;25.73;47.72;100476.34;5014692;28;46441;-84
2022/08/04 03:24:19;;;;;;;;;3.00;3.00;;;;;25.70;47.73;100484.78;4996359;28;47060;-84
2022/08/04 03:26:55;;;;;;;;;3.00;3.00;;;;;25.64;47.96;100479.47;4996265;28;45807;-86
2022/08/04 03:29:32;;;;;;;;;3.75;3.25;;;;;25.59;48.20;100477.38;4996527;28;45483;-84
2022/08/04 03:32:17;;;;;;;;;3.75;3.00;;;;;25.55;48.13;100478.00;4996693;28;48627;-85
2022/08/04 03:38:44;;;;;;;;;4.00;3.00;;;;;25.36;48.54;100463.59;5014963;28;45661;-84
2022/08/04 03:41:31;;;;;;;;;4.50;4.00;;;;;25.33;48.58;100472.03;5000151;28;45628;-84
2022/08/04 03:43:56;;;;;;;;;3.50;3.00;;;;;25.30;48.91;100475.97;4996958;28;48531;-84
2022/08/04 03:46:55;;;;;;;;;4.00;3.25;;;;;25.28;48.79;100477.22;5013965;28;45510;-84
2022/08/04 03:56:16;;;;;;;;;2.00;2.00;;;;;25.28;48.69;100466.47;5017104;28;45739;-87
2022/08/04 03:59:03;;;;;;;;;3.00;3.00;;;;;25.25;49.04;100453.50;5001549;28;47230;-86
2022/08/04 04:01:28;;;;;;;;;3.00;2.25;;;;;25.24;48.80;100443.78;5003319;28;45508;-87
2022/08/04 04:04:08;;;;;;;;;3.00;3.00;;;;;25.27;48.77;100440.69;5021934;28;45455;-87
2022/08/04 04:07:12;;;;;;;;;3.00;3.00;;;;;25.33;48.28;100445.22;5021107;28;45663;-86
2022/08/04 04:10:02;;;;;;;;;2.00;2.00;;;;;25.36;48.62;100453.69;5018969;28;45630;-87
2022/08/04 04:12:50;;;;;;;;;3.00;2.75;;;;;25.38;48.51;100469.56;5017768;28;45564;-86
2022/08/04 04:15:25;;;;;;;;;3.00;3.00;;;;;25.39;48.50;100481.94;5021863;28;45882;-86
2022/08/04 04:18:15;;;;;;;;;4.00;2.00;;;;;25.33;48.83;100475.53;5003335;28;48403;-87
2022/08/04 04:24:41;;;;;;;;;2.50;2.50;;;;;25.33;48.59;100504.22;5019367;28;45578;-85
2022/08/04 04:27:33;;;;;;;;;3.50;3.00;;;;;25.31;48.40;100499.09;4960230;28;45686;-86
2022/08/04 04:30:10;;;;;;;;;3.00;3.00;;;;;25.28;48.53;100501.34;5002724;28;47295;-85
2022/08/04 04:33:00;;;;;;;;;3.50;3.00;;;;;25.24;48.78;100492.91;5020467;28;45631;-86
2022/08/04 04:39:16;;;;;;;;;3.25;3.00;;;;;25.21;49.09;100508.59;5019871;28;45677;-86
2022/08/04 04:41:47;;;;;;;;;1.25;1.25;;;;;25.18;48.95;100507.13;5004947;28;48584;-87
2022/08/04 04:44:34;;;;;;;;;3.00;3.00;;;;;25.14;49.04;100519.31;5005585;28;48330;-87
2022/08/04 04:47:15;;;;;;;;;3.25;3.00;;;;;25.02;49.14;100524.44;5023005;28;45689;-86
2022/08/04 04:50:07;;;;;;;;;4.50;4.00;;;;;25.00;49.53;100556.00;5024668;28;45694;-86
2022/08/04 04:56:06;;;;;;;;;3.25;2.25;;;;;24.70;50.27;100561.88;5019817;28;45936;-87
2022/08/04 04:58:34;;;;;;;;;3.25;2.50;;;;;24.52;50.31;100539.16;5021996;28;45575;-88
2022/08/04 05:01:33;;;;;;;;;3.00;2.25;;;;;24.48;50.64;100553.16;5020966;28;46018;-85
2022/08/04 05:04:29;;;;;;;;;3.00;3.00;;;;;24.44;50.30;100551.91;5002966;28;46933;-85
2022/08/04 05:07:00;;;;;;;;;4.50;3.50;;;;;24.34;50.06;100538.91;5030675;28;45748;-86
2022/08/04 05:09:31;;;;;;;;;4.75;3.75;;;;;24.34;50.58;100536.22;5014564;28;45684;-86
2022/08/04 05:12:09;;;;;;;;;4.25;3.00;;;;;24.33;50.36;100541.78;5028176;28;45574;-86
2022/08/04 05:14:42;;;;;;;;;4.25;3.00;;;;;24.21;50.82;100536.97;5002099;28;47760;-85
2022/08/04 05:17:34;;;;;;;;;5.25;4.00;;;;;24.30;52.89;100542.16;4999364;28;46138;-85
2022/08/04 05:20:28;;;;;;;;;3.00;3.00;;;;;24.28;52.06;100537.03;5003599;28;45546;-87
2022/08/04 05:23:08;;;;;;;;;2.00;2.00;;;;;24.14;52.91;100511.16;5019624;28;45474;-85
2022/08/04 05:25:37;;;;;;;;;3.00;3.00;;;;;24.20;52.08;100545.22;5024819;28;45649;-86
2022/08/04 05:28:12;;;;;;;;;1.75;1.75;;;;;24.12;52.08;100548.88;5014840;28;46824;-86
2022/08/04 05:30:47;;;;;;;;;4.75;3.75;;;;;24.03;51.97;100550.03;5031736;28;45598;-86
2022/08/04 05:33:15;;;;;;;;;3.00;3.00;;;;;23.92;51.89;100526.50;5033172;28;45502;-85
2022/08/04 05:38:42;;;;;;;;;5.25;4.25;;;;;23.87;52.39;100549.53;5025982;28;45658;-85
2022/08/04 05:41:09;;;;;;;;;3.50;3.00;;;;;23.90;52.11;100549.97;5026117;28;45656;-85
2022/08/04 05:43:42;;;;;;;;;4.00;4.00;;;;;24.04;51.44;100562.41;5008402;28;46096;-86
2022/08/04 05:46:09;;;;;;;;;0.00;0.00;;;;;23.92;51.75;100542.56;5027775;28;46722;-87
2022/08/04 05:48:37;;;;;;;;;3.25;3.00;;;;;23.93;51.36;100543.38;5009084;28;46992;-86
2022/08/04 05:51:07;;;;;;;;;2.00;2.00;;;;;24.01;51.07;100557.47;5028395;28;45650;-84
2022/08/04 05:53:33;;;;;;;;;3.25;3.00;;;;;24.06;51.12;100564.88;5005731;28;45933;-85
2022/08/04 05:56:01;;;;;;;;;3.25;3.25;;;;;24.00;51.06;100539.72;5025720;28;45475;-86
2022/08/04 05:58:30;;;;;;;;;2.00;2.00;;;;;23.95;51.14;100522.63;5024317;28;45638;-86
2022/08/04 06:00:58;;;;;;;;;2.00;2.00;;;;;24.01;51.13;100530.69;5025588;28;45497;-85
2022/08/04 06:03:26;;;;;;;;;3.00;3.00;;;;;24.10;50.83;100552.75;5019789;28;45463;-86
2022/08/04 06:05:51;;;;;;;;;4.00;3.25;;;;;24.04;50.94;100535.63;5019700;28;45925;-87
2022/08/04 06:08:17;;;;;;;;;3.50;2.50;;;;;24.18;51.14;100533.91;5018243;28;45708;-85
2022/08/04 06:10:45;;;;;;;;;3.50;3.50;;;;;24.27;50.83;100545.25;4999818;28;45813;-75
2022/08/04 06:13:14;;;;;;;;;3.00;3.00;;;;;24.31;51.23;100546.50;4997045;28;45964;-76
2022/08/04 06:15:45;;;;;;;;;3.75;3.75;;;;;24.32;50.21;100538.25;5014251;28;45627;-77
2022/08/04 06:18:12;;;;;;;;;3.25;3.00;;;;;24.33;50.82;100542.59;5014515;28;46211;-76
2022/08/04 06:20:41;;;;;;;;;3.25;3.00;;;;;24.40;50.75;100550.66;4996372;28;45659;-76
2022/08/04 06:23:10;;;;;;;;;4.00;4.00;;;;;24.41;50.84;100541.59;5013655;28;45704;-76
2022/08/04 06:25:40;;;;;;;;;3.00;2.50;;;;;24.43;50.75;100548.41;5013918;28;45703;-74
2022/08/04 06:28:07;;;;;;;;;3.00;3.00;;;;;24.37;50.30;100543.03;5014024;28;46186;-77
2022/08/04 06:30:35;;;;;;;;;4.00;3.00;;;;;24.36;50.49;100552.91;5014736;28;45639;-77
2022/08/04 06:33:12;;;;;;;;;3.50;3.00;;;;;24.37;50.52;100553.72;5014562;28;45483;-76
2022/08/04 06:35:39;;;;;;;;;3.50;2.25;;;;;24.35;50.10;100553.09;4996100;28;47053;-78
2022/08/04 06:38:05;;;;;;;;;4.50;4.25;;;;;24.34;50.73;100556.81;5014182;28;46422;-76
2022/08/04 06:40:32;;;;;;;;;2.50;2.00;;;;;24.29;50.79;100546.72;5014164;28;45762;-74
2022/08/04 06:42:58;;;;;;;;;3.00;3.00;;;;;24.33;50.34;100563.19;4996528;28;45746;-77
2022/08/04 06:45:24;;;;;;;;;3.25;3.00;;;;;24.32;49.82;100558.88;5014086;28;45729;-78
2022/08/04 06:47:50;;;;;;;;;5.00;3.50;;;;;24.36;49.84;100558.25;5013903;28;45699;-78
2022/08/04 06:50:16;;;;;;;;;3.00;3.00;;;;;24.40;49.90;100567.53;5014327;28;45691;-78
2022/08/04 06:52:45;;;;;;;;;3.50;2.75;;;;;24.40;50.01;100564.06;5014213;28;45654;-78
2022/08/04 06:55:12;;;;;;;;;3.50;3.50;;;;;24.46;49.31;100568.59;4995514;28;48169;-77
2022/08/04 06:57:40;;;;;;;;;2.00;2.00;;;;;24.47;50.13;100571.09;5013768;28;46164;-75
2022/08/04 07:00:12;;;;;;;;;2.00;2.00;;;;;24.50;49.51;100569.88;5013882;28;45657;-75
2022/08/04 07:02:42;;;;;;;;;4.00;3.00;;;;;24.59;49.16;100577.53;5013997;28;45683;-77
2022/08/04 07:05:10;;;;;;;;;5.00;3.00;;;;;24.62;49.51;100587.00;5013217;28;45675;-76
2022/08/04 07:07:37;;;;;;;;;3.75;3.25;;;;;24.65;49.12;100576.72;5013350;28;46069;-78
2022/08/04 07:10:03;;;;;;;;;3.25;3.25;;;;;24.74;49.03;100580.03;5013784;28;45727;-78
2022/08/04 07:12:31;;;;;;;;;3.25;3.00;;;;;24.77;48.82;100578.81;4996195;28;45583;-78
2022/08/04 07:14:57;;;;;;;;;3.75;2.50;;;;;24.88;48.96;100589.00;5013748;28;45742;-78
2022/08/04 07:17:24;;;;;;;;;4.75;3.50;;;;;24.89;48.92;100583.41;5013298;28;47071;-77
2022/08/04 07:19:51;;;;;;;;;4.75;3.00;;;;;24.99;49.03;100602.59;5013462;28;45625;-78
2022/08/04 07:22:17;;;;;;;;;2.50;2.25;;;;;25.03;48.67;100595.81;5013746;28;45890;-77
2022/08/04 07:24:44;;;;;;;;;4.00;2.75;;;;;25.07;48.42;100590.88;5013072;28;45679;-77
2022/08/04 07:27:09;;;;;;;;;4.50;3.50;;;;;25.16;48.50;100605.72;5013325;28;46280;-77
2022/08/04 07:29:35;;;;;;;;;3.75;2.00;;;;;25.16;48.26;100595.00;5013525;28;45594;-77
2022/08/04 07:32:03;;;;;;;;;5.25;4.00;;;;;25.20;48.35;100593.59;5013562;28;45769;-76
2022/08/04 07:34:29;;;;;;;;;3.25;3.00;;;;;25.23;48.14;100595.84;5013318;28;45814;-77
2022/08/04 07:36:56;;;;;;;;;5.00;3.00;;;;;25.28;47.98;100601.41;5013229;28;45805;-77
2022/08/04 07:42:45;;;;;;;;;3.75;3.00;;;;;25.36;48.04;100611.13;5012955;28;45509;-77
2022/08/04 07:45:10;;;;;;;;;4.00;3.00;;;;;25.37;47.65;100599.38;5013195;28;45800;-77
2022/08/04 07:47:38;;;;;;;;;4.25;3.00;;;;;25.46;47.95;100601.66;5013024;28;46304;-77
2022/08/04 07:50:07;;;;;;;;;4.75;3.00;;;;;25.52;47.84;100616.09;5013181;28;45635;-78
2022/08/04 07:52:33;;;;;;;;;2.50;2.50;;;;;25.55;48.57;100623.72;5013394;28;45735;-79
2022/08/04 07:54:59;;;;;;;;;3.00;2.75;;;;;25.58;47.74;100609.94;4994729;28;47136;-78
2022/08/04 07:57:24;;;;;;;;;5.00;3.50;;;;;25.51;48.04;100611.75;5012889;28;45710;-78
2022/08/04 07:59:50;;;;;;;;;2.75;2.75;;;;;25.59;48.31;100634.94;5013244;28;45724;-78
2022/08/04 08:02:19;;;;;;;;;3.00;3.00;;;;;25.51;48.25;100643.97;5013069;28;45618;-77
2022/08/04 08:04:46;;;;;;;;;3.25;2.75;;;;;25.47;47.90;100637.34;5013073;28;45753;-78
2022/08/04 08:07:11;;;;;;;;;4.00;3.00;;;;;25.45;48.59;100628.69;5012738;28;45844;-78
2022/08/04 08:12:58;;;;;;;;;3.00;3.00;;;;;25.38;48.37;100643.94;5012816;28;45540;-79
2022/08/04 08:15:24;;;;;;;;;4.00;2.75;;;;;25.31;48.84;100649.31;5013386;28;45688;-78
2022/08/04 08:17:50;;;;;;;;;3.00;2.00;;;;;25.25;49.22;100641.25;5016140;28;46403;-75
2022/08/04 08:20:15;;;;;;;;;2.25;2.25;;;;;25.20;49.45;100655.28;5016619;28;45754;-75
2022/08/04 08:22:41;;;;;;;;;4.00;3.00;;;;;25.18;50.29;100668.03;4998127;28;45870;-75
2022/08/04 08:28:28;;;;;;;;;2.25;2.00;;;;;24.99;50.83;100658.91;5015803;28;45606;-76
2022/08/04 08:30:54;;;;;;;;;1.75;1.25;;;;;24.90;51.27;100649.41;5016172;28;45682;-76
2022/08/04 08:33:20;;;;;;;;;2.00;2.00;;;;;24.83;51.78;100659.22;5016474;28;45574;-76
2022/08/04 08:35:48;;;;;;;;;4.00;2.50;;;;;24.75;52.28;100653.22;5016035;28;45484;-75
2022/08/04 08:38:17;;;;;;;;;5.25;4.00;;;;;24.69;52.00;100641.44;5015709;28;45778;-75
2022/08/04 08:41:17;;;;;;;;;2.75;2.50;;;;;24.72;52.44;100662.50;5016123;28;45685;-74
2022/08/04 08:44:01;;;;;;;;;2.75;2.00;;;;;24.71;52.39;100674.25;5016594;28;45573;-77
2022/08/04 08:46:43;;;;;;;;;4.25;3.00;;;;;24.66;52.96;100655.25;5015972;28;46957;-82
2022/08/04 08:49:20;;;;;;;;;3.50;2.50;;;;;24.66;52.40;100660.63;5016529;28;46526;-82
2022/08/04 08:52:10;;;;;;;;;2.75;2.25;;;;;24.61;52.81;100657.72;5016407;28;45745;-83
2022/08/04 08:54:43;;;;;;;;;2.75;2.00;;;;;24.62;52.26;100660.16;4998600;28;45849;-83
2022/08/04 08:57:40;;;;;;;;;2.00;2.00;;;;;24.62;52.58;100659.34;5015915;28;46885;-83
2022/08/04 09:00:15;;;;;;;;;3.25;3.00;;;;;24.59;52.53;100643.69;5015856;28;46089;-83
2022/08/04 09:03:37;;;;;;;;;3.75;3.00;;;;;24.52;53.17;100638.28;5016672;28;45732;-83
2022/08/04 09:06:21;;;;;;;;;2.00;2.00;;;;;24.54;53.24;100652.31;5015954;28;45898;-84
2022/08/04 09:12:26;;;;;;;;;1.00;1.00;;;;;24.56;52.64;100663.66;5015270;28;45883;-81
2022/08/04 09:15:12;;;;;;;;;1.00;1.00;;;;;24.61;52.55;100658.53;5015645;28;45639;-83
2022/08/04 09:18:04;;;;;;;;;2.75;2.00;;;;;24.65;52.85;100662.47;5015873;28;45691;-83
2022/08/04 09:20:38;;;;;;;;;4.00;2.50;;;;;24.67;52.47;100663.09;4915598;28;46672;-82
2022/08/04 09:23:12;;;;;;;;;3.00;2.00;;;;;24.73;52.52;100668.66;4915691;28;46438;-81
2022/08/04 09:29:18;;;;;;;;;1.00;1.00;;;;;24.84;52.56;100678.81;4915880;28;45756;-82
2022/08/04 09:32:07;;;;;;;;;1.00;1.00;;;;;24.95;52.44;100686.31;4915715;28;48604;-82
2022/08/04 09:34:54;;;;;;;;;3.00;2.00;;;;;25.00;52.65;100679.34;4916415;28;46785;-84
2022/08/04 09:37:47;;;;;;;;;3.75;2.00;;;;;25.00;52.71;100694.59;4916198;28;45598;-82
2022/08/04 09:40:24;;;;;;;;;1.00;1.00;;;;;25.02;52.61;100688.00;4916359;28;45680;-83
2022/08/04 09:43:15;;;;;;;;;1.00;1.00;;;;;25.01;53.24;100691.72;4915494;28;47783;-82
2022/08/04 09:45:59;;;;;;;;;1.25;1.25;;;;;25.02;52.94;100695.22;4915602;28;46308;-83
2022/08/04 09:48:57;;;;;;;;;2.00;1.00;;;;;24.96;52.85;100680.78;4915070;28;46031;-82
2022/08/04 09:51:41;;;;;;;;;1.00;1.00;;;;;25.02;52.71;100693.38;4859042;28;45629;-85
2022/08/04 09:57:50;;;;;;;;;1.75;1.25;;;;;25.11;52.09;100677.09;4886220;28;45873;-84
2022/08/04 10:00:19;;;;;;;;;1.75;1.00;;;;;25.17;52.27;100677.13;4899414;28;45977;-85
2022/08/04 10:02:55;;;;;;;;;1.75;1.75;;;;;25.24;52.23;100675.28;4931708;28;45848;-84
2022/08/04 10:05:25;;;;;;;;;1.25;1.00;;;;;25.27;52.07;100666.00;4914927;28;46640;-84
2022/08/04 10:08:09;;;;;;;;;1.75;1.00;;;;;25.38;51.96;100678.81;4914619;28;46144;-83
2022/08/04 10:14:04;;;;;;;;;3.75;1.75;;;;;25.46;51.59;100681.31;4915114;28;45631;-84
2022/08/04 10:16:35;;;;;;;;;1.50;1.50;;;;;25.52;51.61;100690.41;4915252;28;45618;-84
2022/08/04 10:19:26;;;;;;;;;1.75;1.75;;;;;25.52;51.52;100693.09;4915269;28;46299;-84
2022/08/04 10:22:02;;;;;;;;;1.00;1.00;;;;;25.40;51.69;100676.75;4914839;28;45619;-77
2022/08/04 10:24:39;;;;;;;;;1.00;1.00;;;;;25.45;51.74;100687.72;4928453;28;45703;-77
2022/08/04 10:27:15;;;;;;;;;1.50;1.00;;;;;25.40;51.95;100684.81;4950736;28;45846;-77
2022/08/04 10:29:46;;;;;;;;;0.00;0.00;;;;;25.41;51.92;100687.28;5014053;28;46175;-77
2022/08/04 10:32:23;;;;;;;;;1.00;1.00;;;;;25.38;52.24;100684.19;5014282;28;45756;-77
2022/08/04 10:35:10;;;;;;;;;1.00;1.00;;;;;25.37;52.08;100683.34;5013485;28;45725;-76
2022/08/04 10:38:12;;;;;;;;;1.00;1.00;;;;;25.38;52.14;100684.19;5012902;28;46830;-77
2022/08/04 10:40:49;;;;;;;;;2.75;2.00;;;;;25.39;52.23;100685.84;5013121;28;45997;-78
2022/08/04 10:43:36;;;;;;;;;1.25;1.00;;;;;25.39;52.54;100664.38;5013268;28;45672;-78
2022/08/04 10:46:08;;;;;;;;;1.00;1.00;;;;;25.44;52.23;100667.25;5013791;28;45609;-78
2022/08/04 10:48:58;;;;;;;;;2.00;1.00;;;;;25.45;52.36;100669.75;5013341;28;45730;-77
2022/08/04 10:51:42;;;;;;;;;1.25;1.25;;;;;25.49;52.23;100671.00;5013743;28;45820;-77
2022/08/04 10:54:12;;;;;;;;;1.50;1.00;;;;;25.51;51.92;100665.44;5013839;28;45538;-76
2022/08/04 10:56:42;;;;;;;;;1.75;1.00;;;;;25.53;51.46;100666.06;5013757;28;45791;-76
2022/08/04 10:59:20;;;;;;;;;1.00;1.00;;;;;25.54;51.93;100661.50;4994747;28;48901;-75
2022/08/04 11:01:49;;;;;;;;;1.00;1.00;;;;;25.55;51.82;100645.19;5012863;28;45920;-76
2022/08/04 11:04:24;;;;;;;;;1.00;1.00;;;;;25.56;52.00;100667.53;4994734;28;45825;-78
2022/08/04 11:06:51;;;;;;;;;1.00;1.00;;;;;25.60;51.76;100672.28;5012840;28;45590;-77
2022/08/04 11:09:17;;;;;;;;;1.50;1.00;;;;;25.62;51.87;100662.16;4994293;28;48829;-78
2022/08/04 11:11:54;;;;;;;;;2.00;1.25;;;;;25.62;51.83;100650.59;5012857;28;45638;-77
2022/08/04 11:14:27;;;;;;;;;1.00;1.00;;;;;25.66;51.86;100663.41;5013619;28;45488;-77
2022/08/04 11:17:43;;;;;;;;;1.00;1.00;;;;;25.67;52.14;100677.66;5013319;28;45582;-77
2022/08/04 11:20:27;;;;;;;;;1.25;0.75;;;;;25.71;51.60;100657.41;4932675;28;45557;-78
2022/08/04 11:23:12;;;;;;;;;1.00;1.00;;;;;25.76;51.67;100669.19;4932334;28;46196;-78
2022/08/04 11:29:28;;;;;;;;;2.00;1.25;;;;;25.87;51.59;100665.88;4932555;28;45568;-78
2022/08/04 11:31:58;;;;;;;;;1.50;1.50;;;;;25.92;51.08;100658.03;4875641;29;45766;-77
2022/08/04 11:34:26;;;;;;;;;2.00;2.00;;;;;26.01;50.72;100672.09;4875460;29;46136;-78
2022/08/04 11:37:19;;;;;;;;;2.25;2.25;;;;;26.08;50.42;100670.19;4875516;29;45791;-77
2022/08/04 11:39:50;;;;;;;;;2.00;2.00;;;;;26.14;50.44;100664.00;4875722;29;45618;-76
2022/08/04 11:42:35;;;;;;;;;1.00;1.00;;;;;26.24;50.47;100669.78;4875102;29;46586;-77
2022/08/04 11:45:26;;;;;;;;;3.00;2.00;;;;;26.30;50.04;100666.25;4875354;29;46627;-78
2022/08/04 11:48:04;;;;;;;;;1.00;1.00;;;;;26.30;50.00;100657.38;4875673;29;45827;-76
2022/08/04 11:50:44;;;;;;;;;2.50;2.00;;;;;26.38;50.01;100672.47;4895703;28;45800;-74
2022/08/04 11:53:15;;;;;;;;;2.25;2.25;;;;;26.46;50.06;100674.91;4935955;28;45622;-79
2022/08/04 11:55:44;;;;;;;;;3.00;3.00;;;;;26.53;49.80;100670.34;4935431;28;47716;-77
2022/08/04 11:58:11;;;;;;;;;4.00;3.00;;;;;26.60;49.72;100660.41;4936054;28;45779;-77
2022/08/04 12:00:44;;;;;;;;;2.00;2.00;;;;;26.70;48.87;100668.84;4919919;28;45589;-78
2022/08/04 12:03:27;;;;;;;;;3.25;2.25;;;;;26.79;48.72;100666.72;4936129;28;47190;-76
2022/08/04 12:06:16;;;;;;;;;3.50;2.75;;;;;26.89;48.59;100672.50;4919462;28;47203;-77
2022/08/04 12:08:50;;;;;;;;;3.00;2.25;;;;;26.98;48.71;100672.06;4949194;28;45747;-78
2022/08/04 12:11:50;;;;;;;;;3.00;1.50;;;;;27.08;48.18;100667.03;5016773;28;45587;-77
2022/08/04 12:14:57;;;;;;;;;3.00;1.75;;;;;27.15;48.17;100673.19;4935308;28;47757;-76
2022/08/04 12:17:36;;;;;;;;;2.00;2.00;;;;;27.19;47.63;100665.53;4878174;29;48409;-79
2022/08/04 12:20:06;;;;;;;;;2.00;2.00;;;;;27.21;48.08;100659.94;4862465;29;45695;-78
2022/08/04 12:22:36;;;;;;;;;3.00;3.00;;;;;27.21;47.75;100655.38;4862774;29;45634;-77
2022/08/04 12:25:06;;;;;;;;;3.00;2.75;;;;;27.32;47.14;100670.81;4878063;29;46530;-78
2022/08/04 12:27:36;;;;;;;;;3.00;2.00;;;;;27.42;46.97;100679.22;4862425;29;47352;-77
2022/08/04 12:30:03;;;;;;;;;2.25;1.25;;;;;27.41;46.59;100671.41;4862456;29;45867;-76
2022/08/04 12:33:04;;;;;;;;;2.50;2.50;;;;;27.47;46.39;100663.28;4878545;29;45857;-76
2022/08/04 12:35:58;;;;;;;;;1.00;1.00;;;;;27.53;46.22;100664.31;4822213;29;46479;-76
2022/08/04 12:38:27;;;;;;;;;2.00;2.00;;;;;27.56;46.13;100658.47;4807022;29;48254;-77
2022/08/04 12:44:15;;;;;;;;;3.00;3.00;;;;;27.71;46.65;100671.59;4822513;29;45678;-77
2022/08/04 12:46:45;;;;;;;;;3.25;3.25;;;;;27.75;46.27;100664.72;4822018;29;45671;-78
2022/08/04 12:49:12;;;;;;;;;2.00;2.00;;;;;27.79;46.12;100665.97;4822732;29;45606;-77
2022/08/04 12:51:42;;;;;;;;;3.00;3.00;;;;;27.83;45.83;100661.78;4839904;29;45604;-77
2022/08/04 12:54:09;;;;;;;;;2.25;2.25;;;;;27.84;46.09;100655.34;4899982;28;45815;-77
2022/08/04 12:59:56;;;;;;;;;2.00;2.00;;;;;27.96;45.90;100669.75;4915108;28;46049;-77
2022/08/04 13:02:32;;;;;;;;;3.00;3.00;;;;;28.03;45.72;100657.03;4915074;28;45688;-77
2022/08/04 13:05:03;;;;;;;;;2.50;2.50;;;;;28.05;46.08;100654.94;4915373;28;45842;-78
2022/08/04 13:07:37;;;;;;;;;2.25;1.50;;;;;28.12;45.42;100647.66;4915835;28;46885;-84
2022/08/04 13:10:10;;;;;;;;;2.50;2.50;;;;;28.20;45.49;100649.22;4918263;28;45862;-80
2022/08/04 13:16:00;;;;;;;;;2.75;2.75;;;;;28.34;45.55;100658.84;5018556;28;45676;-85
2022/08/04 13:18:32;;;;;;;;;2.00;2.00;;;;;28.34;45.50;100654.25;5017760;28;46589;-83